sensor_id;sensor_type;location;lat;lon;timestamp;pressure;altitude;pressure_sealevel;temperature;humidity
66385;BME280;53426;55.872;37.462;2023-04-21T00:01:38;99369.56;;;7.45;35.32
66385;BME280;53426;55.872;37.462;2023-04-21T00:04:04;99388.16;;;7.54;35.78
66385;BME280;53426;55.872;37.462;2023-04-21T00:06:30;99387.31;;;7.54;35.97
66385;BME280;53426;55.872;37.462;2023-04-21T00:08:58;99380.59;;;7.50;35.83
66385;BME280;53426;55.872;37.462;2023-04-21T00:11:39;99327.06;;;7.14;35.83
66385;BME280;53426;55.872;37.462;2023-04-21T00:14:05;99386.75;;;7.38;36.05
66385;BME280;53426;55.872;37.462;2023-04-21T00:16:40;99354.41;;;7.25;36.38
66385;BME280;53426;55.872;37.462;2023-04-21T00:19:06;99320.94;;;6.90;36.78
66385;BME280;53426;55.872;37.462;2023-04-21T00:21:33;99314.81;;;6.90;36.43
66385;BME280;53426;55.872;37.462;2023-04-21T00:23:59;99311.09;;;6.81;36.89
66385;BME280;53426;55.872;37.462;2023-04-21T00:26:25;99374.66;;;7.11;37.33
66385;BME280;53426;55.872;37.462;2023-04-21T00:28:51;99367.44;;;7.02;37.13
66385;BME280;53426;55.872;37.462;2023-04-21T00:31:18;99362.72;;;6.95;37.42
66385;BME280;53426;55.872;37.462;2023-04-21T00:33:44;99309.34;;;6.56;37.39
66385;BME280;53426;55.872;37.462;2023-04-21T00:36:10;99374.50;;;7.02;37.04
66385;BME280;53426;55.872;37.462;2023-04-21T00:38:35;99364.78;;;7.02;36.73
66385;BME280;53426;55.872;37.462;2023-04-21T00:41:01;99311.97;;;6.69;36.57
66385;BME280;53426;55.872;37.462;2023-04-21T00:43:27;99362.38;;;6.99;36.79
66385;BME280;53426;55.872;37.462;2023-04-21T00:45:54;99353.25;;;6.92;36.54
66385;BME280;53426;55.872;37.462;2023-04-21T00:48:20;99334.13;;;6.78;36.75
66385;BME280;53426;55.872;37.462;2023-04-21T00:50:46;99295.28;;;6.45;36.82
66385;BME280;53426;55.872;37.462;2023-04-21T00:53:13;99348.53;;;6.85;36.75
66385;BME280;53426;55.872;37.462;2023-04-21T00:55:40;99308.16;;;6.60;36.35
66385;BME280;53426;55.872;37.462;2023-04-21T00:58:07;99310.50;;;6.65;36.37
66385;BME280;53426;55.872;37.462;2023-04-21T01:00:33;99321.19;;;6.75;36.75
66385;BME280;53426;55.872;37.462;2023-04-21T01:03:00;99317.22;;;6.69;37.29
66385;BME280;53426;55.872;37.462;2023-04-21T01:05:26;99287.91;;;6.50;36.77
66385;BME280;53426;55.872;37.462;2023-04-21T01:07:52;99329.00;;;6.76;37.33
66385;BME280;53426;55.872;37.462;2023-04-21T01:10:18;99300.41;;;6.59;36.77
66385;BME280;53426;55.872;37.462;2023-04-21T01:12:46;99334.97;;;6.78;37.54
66385;BME280;53426;55.872;37.462;2023-04-21T01:15:14;99352.78;;;6.75;37.52
66385;BME280;53426;55.872;37.462;2023-04-21T01:17:40;99329.97;;;6.62;37.10
66385;BME280;53426;55.872;37.462;2023-04-21T01:20:08;99338.94;;;6.60;37.85
66385;BME280;53426;55.872;37.462;2023-04-21T01:22:39;99335.44;;;6.59;37.90
66385;BME280;53426;55.872;37.462;2023-04-21T01:25:08;99294.59;;;6.30;37.12
66385;BME280;53426;55.872;37.462;2023-04-21T01:27:35;99328.19;;;6.50;37.93
66385;BME280;53426;55.872;37.462;2023-04-21T01:30:03;99317.72;;;6.38;37.45
66385;BME280;53426;55.872;37.462;2023-04-21T01:32:31;99335.66;;;6.44;38.09
66385;BME280;53426;55.872;37.462;2023-04-21T01:34:58;99337.34;;;6.45;37.61
66385;BME280;53426;55.872;37.462;2023-04-21T01:37:27;99336.63;;;6.43;38.14
66385;BME280;53426;55.872;37.462;2023-04-21T01:39:56;99318.34;;;6.28;37.59
66385;BME280;53426;55.872;37.462;2023-04-21T01:42:27;99334.22;;;6.40;37.67
66385;BME280;53426;55.872;37.462;2023-04-21T01:44:54;99324.97;;;6.34;37.46
66385;BME280;53426;55.872;37.462;2023-04-21T01:47:21;99293.75;;;6.17;37.66
66385;BME280;53426;55.872;37.462;2023-04-21T01:49:47;99324.97;;;6.34;37.77
66385;BME280;53426;55.872;37.462;2023-04-21T01:52:13;99305.63;;;6.22;37.69
66385;BME280;53426;55.872;37.462;2023-04-21T01:54:39;99339.47;;;6.40;38.10
66385;BME280;53426;55.872;37.462;2023-04-21T01:57:06;99335.06;;;6.40;37.85
66385;BME280;53426;55.872;37.462;2023-04-21T01:59:34;99331.38;;;6.30;38.04
66385;BME280;53426;55.872;37.462;2023-04-21T02:02:01;99344.63;;;6.28;38.15
66385;BME280;53426;55.872;37.462;2023-04-21T02:04:28;99335.50;;;6.21;38.65
66385;BME280;53426;55.872;37.462;2023-04-21T02:06:53;99313.03;;;6.05;38.18
66385;BME280;53426;55.872;37.462;2023-04-21T02:09:19;99337.19;;;6.10;38.56
66385;BME280;53426;55.872;37.462;2023-04-21T02:11:47;99333.91;;;6.06;39.35
66385;BME280;53426;55.872;37.462;2023-04-21T02:14:13;99335.94;;;6.03;38.63
66385;BME280;53426;55.872;37.462;2023-04-21T02:16:40;99315.63;;;5.92;38.42
66385;BME280;53426;55.872;37.462;2023-04-21T02:19:06;99301.75;;;5.77;38.40
66385;BME280;53426;55.872;37.462;2023-04-21T02:21:32;99334.47;;;5.99;39.10
66385;BME280;53426;55.872;37.462;2023-04-21T02:23:59;99337.28;;;5.96;39.34
66385;BME280;53426;55.872;37.462;2023-04-21T02:26:26;99340.84;;;5.95;38.91
66385;BME280;53426;55.872;37.462;2023-04-21T02:28:52;99310.25;;;5.81;39.22
66385;BME280;53426;55.872;37.462;2023-04-21T02:31:18;99328.31;;;5.85;38.77
66385;BME280;53426;55.872;37.462;2023-04-21T02:33:44;99332.44;;;5.89;39.13
66385;BME280;53426;55.872;37.462;2023-04-21T02:36:13;99339.28;;;5.92;38.88
66385;BME280;53426;55.872;37.462;2023-04-21T02:38:39;99323.47;;;5.79;39.22
66385;BME280;53426;55.872;37.462;2023-04-21T02:41:09;99323.75;;;5.89;39.60
66385;BME280;53426;55.872;37.462;2023-04-21T02:43:35;99317.09;;;5.83;39.30
66385;BME280;53426;55.872;37.462;2023-04-21T02:46:07;99321.84;;;5.91;38.84
66385;BME280;53426;55.872;37.462;2023-04-21T02:48:34;99328.69;;;5.94;39.03
66385;BME280;53426;55.872;37.462;2023-04-21T02:51:00;99304.59;;;5.87;39.00
66385;BME280;53426;55.872;37.462;2023-04-21T02:53:29;99331.81;;;6.11;38.89
66385;BME280;53426;55.872;37.462;2023-04-21T02:55:54;99293.03;;;5.89;38.97
66385;BME280;53426;55.872;37.462;2023-04-21T02:58:21;99315.53;;;6.06;38.75
66385;BME280;53426;55.872;37.462;2023-04-21T03:01:12;99334.34;;;6.25;38.87
66385;BME280;53426;55.872;37.462;2023-04-21T03:03:38;99298.63;;;5.98;38.39
66385;BME280;53426;55.872;37.462;2023-04-21T03:06:05;99274.53;;;5.91;38.59
66385;BME280;53426;55.872;37.462;2023-04-21T03:08:31;99318.91;;;6.21;38.54
66385;BME280;53426;55.872;37.462;2023-04-21T03:10:58;99348.00;;;6.43;38.13
66385;BME280;53426;55.872;37.462;2023-04-21T03:13:27;99334.09;;;6.41;38.17
66385;BME280;53426;55.872;37.462;2023-04-21T03:15:53;99347.16;;;6.43;38.09
66385;BME280;53426;55.872;37.462;2023-04-21T03:18:28;99343.44;;;6.58;37.25
66385;BME280;53426;55.872;37.462;2023-04-21T03:20:58;99337.56;;;6.54;37.55
66385;BME280;53426;55.872;37.462;2023-04-21T03:23:26;99345.00;;;6.60;37.60
66385;BME280;53426;55.872;37.462;2023-04-21T03:25:51;99349.84;;;6.66;37.94
66385;BME280;53426;55.872;37.462;2023-04-21T03:28:17;99343.28;;;6.72;37.75
66385;BME280;53426;55.872;37.462;2023-04-21T03:30:44;99335.72;;;6.80;37.93
66385;BME280;53426;55.872;37.462;2023-04-21T03:33:10;99344.97;;;6.86;37.13
66385;BME280;53426;55.872;37.462;2023-04-21T03:35:37;99345.13;;;6.95;38.07
66385;BME280;53426;55.872;37.462;2023-04-21T03:38:09;99345.53;;;7.02;36.91
66385;BME280;53426;55.872;37.462;2023-04-21T03:40:36;99310.75;;;6.86;37.24
66385;BME280;53426;55.872;37.462;2023-04-21T03:43:02;99339.81;;;7.08;37.13
66385;BME280;53426;55.872;37.462;2023-04-21T03:45:29;99342.38;;;7.21;36.80
66385;BME280;53426;55.872;37.462;2023-04-21T03:47:59;99322.06;;;7.23;36.43
66385;BME280;53426;55.872;37.462;2023-04-21T03:50:24;99345.31;;;8.21;35.17
66385;BME280;53426;55.872;37.462;2023-04-21T03:52:50;99334.81;;;9.19;33.23
66385;BME280;53426;55.872;37.462;2023-04-21T03:55:16;99332.75;;;10.17;31.82
66385;BME280;53426;55.872;37.462;2023-04-21T03:57:42;99321.84;;;10.71;30.65
66385;BME280;53426;55.872;37.462;2023-04-21T04:00:10;99323.63;;;11.30;29.23
66385;BME280;53426;55.872;37.462;2023-04-21T04:02:40;99313.44;;;11.73;28.76
66385;BME280;53426;55.872;37.462;2023-04-21T04:05:09;99328.41;;;12.31;28.66
66385;BME280;53426;55.872;37.462;2023-04-21T04:07:35;99328.72;;;12.55;27.75
66385;BME280;53426;55.872;37.462;2023-04-21T04:10:01;99305.81;;;12.81;27.25
66385;BME280;53426;55.872;37.462;2023-04-21T04:12:31;99335.97;;;13.17;27.01
66385;BME280;53426;55.872;37.462;2023-04-21T04:15:01;99330.28;;;13.48;26.65
66385;BME280;53426;55.872;37.462;2023-04-21T04:17:30;99293.97;;;13.56;26.11
66385;BME280;53426;55.872;37.462;2023-04-21T04:20:02;99299.19;;;13.83;25.43
66385;BME280;53426;55.872;37.462;2023-04-21T04:22:30;99318.72;;;14.18;25.82
66385;BME280;53426;55.872;37.462;2023-04-21T04:24:55;99336.56;;;14.51;25.04
66385;BME280;53426;55.872;37.462;2023-04-21T04:27:24;99326.72;;;14.78;24.82
66385;BME280;53426;55.872;37.462;2023-04-21T04:29:51;99304.75;;;14.92;24.48
66385;BME280;53426;55.872;37.462;2023-04-21T04:32:17;99297.19;;;15.21;23.73
66385;BME280;53426;55.872;37.462;2023-04-21T04:34:43;99325.22;;;15.41;23.89
66385;BME280;53426;55.872;37.462;2023-04-21T04:37:09;99319.22;;;16.04;22.97
66385;BME280;53426;55.872;37.462;2023-04-21T04:39:36;99320.44;;;16.73;22.26
66385;BME280;53426;55.872;37.462;2023-04-21T04:42:07;99320.06;;;16.84;22.23
66385;BME280;53426;55.872;37.462;2023-04-21T04:44:36;99314.47;;;17.02;22.57
66385;BME280;53426;55.872;37.462;2023-04-21T04:47:15;99302.13;;;16.93;22.27
66385;BME280;53426;55.872;37.462;2023-04-21T04:49:42;99306.81;;;17.22;21.67
66385;BME280;53426;55.872;37.462;2023-04-21T04:52:08;99318.59;;;17.66;21.23
66385;BME280;53426;55.872;37.462;2023-04-21T04:54:34;99309.94;;;17.56;21.26
66385;BME280;53426;55.872;37.462;2023-04-21T04:57:02;99314.66;;;17.46;21.15
66385;BME280;53426;55.872;37.462;2023-04-21T04:59:31;99315.47;;;17.77;20.80
66385;BME280;53426;55.872;37.462;2023-04-21T05:02:03;99299.06;;;17.95;20.62
66385;BME280;53426;55.872;37.462;2023-04-21T05:04:29;99319.72;;;18.38;20.53
66385;BME280;53426;55.872;37.462;2023-04-21T05:07:08;99319.28;;;18.35;20.17
66385;BME280;53426;55.872;37.462;2023-04-21T05:10:07;99316.44;;;18.80;20.78
66385;BME280;53426;55.872;37.462;2023-04-21T05:12:36;99298.69;;;19.15;19.62
66385;BME280;53426;55.872;37.462;2023-04-21T05:15:02;99242.16;;;19.59;18.98
66385;BME280;53426;55.872;37.462;2023-04-21T05:17:32;99302.72;;;21.14;18.21
66385;BME280;53426;55.872;37.462;2023-04-21T05:19:58;99274.88;;;20.94;17.69
66385;BME280;53426;55.872;37.462;2023-04-21T05:22:24;99290.03;;;21.08;17.80
66385;BME280;53426;55.872;37.462;2023-04-21T05:24:53;99265.88;;;20.74;17.55
66385;BME280;53426;55.872;37.462;2023-04-21T05:27:19;99274.00;;;20.39;17.97
66385;BME280;53426;55.872;37.462;2023-04-21T05:29:48;99277.75;;;20.45;18.04
66385;BME280;53426;55.872;37.462;2023-04-21T05:32:14;99292.72;;;21.95;17.39
66385;BME280;53426;55.872;37.462;2023-04-21T05:34:41;99238.94;;;22.33;16.57
66385;BME280;53426;55.872;37.462;2023-04-21T05:37:12;99258.94;;;22.83;16.58
66385;BME280;53426;55.872;37.462;2023-04-21T05:39:40;99280.09;;;23.62;15.55
66385;BME280;53426;55.872;37.462;2023-04-21T05:42:37;99286.69;;;23.98;15.60
66385;BME280;53426;55.872;37.462;2023-04-21T05:45:05;99205.47;;;23.30;16.19
66385;BME280;53426;55.872;37.462;2023-04-21T05:47:37;99219.72;;;23.44;15.26
66385;BME280;53426;55.872;37.462;2023-04-21T05:50:05;99197.50;;;23.10;15.41
66385;BME280;53426;55.872;37.462;2023-04-21T05:52:31;99273.41;;;23.71;15.40
66385;BME280;53426;55.872;37.462;2023-04-21T05:54:57;99267.22;;;22.82;15.46
66385;BME280;53426;55.872;37.462;2023-04-21T05:57:29;99263.16;;;23.11;15.63
66385;BME280;53426;55.872;37.462;2023-04-21T05:59:56;99180.00;;;23.51;14.98
66385;BME280;53426;55.872;37.462;2023-04-21T06:02:32;99230.34;;;24.20;14.59
66385;BME280;53426;55.872;37.462;2023-04-21T06:04:57;99215.41;;;24.53;14.33
66385;BME280;53426;55.872;37.462;2023-04-21T06:07:48;99276.47;;;25.64;14.83
66385;BME280;53426;55.872;37.462;2023-04-21T06:10:52;99232.03;;;26.00;13.90
66385;BME280;53426;55.872;37.462;2023-04-21T06:13:18;99220.75;;;26.66;12.95
66385;BME280;53426;55.872;37.462;2023-04-21T06:15:43;99169.84;;;25.98;13.29
66385;BME280;53426;55.872;37.462;2023-04-21T06:18:09;99220.34;;;25.99;13.23
66385;BME280;53426;55.872;37.462;2023-04-21T06:20:35;99234.25;;;27.01;13.29
66385;BME280;53426;55.872;37.462;2023-04-21T06:23:01;99269.38;;;27.47;12.55
66385;BME280;53426;55.872;37.462;2023-04-21T06:25:27;99260.16;;;26.92;12.80
66385;BME280;53426;55.872;37.462;2023-04-21T06:28:04;99268.28;;;27.32;12.89
66385;BME280;53426;55.872;37.462;2023-04-21T06:30:30;99241.72;;;27.22;12.73
66385;BME280;53426;55.872;37.462;2023-04-21T06:32:57;99239.06;;;27.11;12.84
66385;BME280;53426;55.872;37.462;2023-04-21T06:35:32;99205.94;;;25.87;13.49
66385;BME280;53426;55.872;37.462;2023-04-21T06:38:00;99253.78;;;26.86;13.20
66385;BME280;53426;55.872;37.462;2023-04-21T06:40:39;99217.13;;;27.00;12.78
66385;BME280;53426;55.872;37.462;2023-04-21T06:43:41;99218.22;;;27.61;13.21
66385;BME280;53426;55.872;37.462;2023-04-21T06:46:07;99203.56;;;26.49;12.75
66385;BME280;53426;55.872;37.462;2023-04-21T06:48:33;99264.56;;;25.76;14.04
66385;BME280;53426;55.872;37.462;2023-04-21T06:54:24;99162.81;;;25.09;14.41
66385;BME280;53426;55.872;37.462;2023-04-21T06:57:44;99188.22;;;26.43;13.20
66385;BME280;53426;55.872;37.462;2023-04-21T07:00:11;99177.97;;;27.30;12.89
66385;BME280;53426;55.872;37.462;2023-04-21T07:02:38;99163.31;;;27.31;12.83
66385;BME280;53426;55.872;37.462;2023-04-21T07:05:04;99254.28;;;28.18;12.08
66385;BME280;53426;55.872;37.462;2023-04-21T07:07:31;99233.03;;;28.37;12.44
66385;BME280;53426;55.872;37.462;2023-04-21T07:10:01;99228.47;;;29.08;11.89
66385;BME280;53426;55.872;37.462;2023-04-21T07:15:56;99216.84;;;28.47;11.67
66385;BME280;53426;55.872;37.462;2023-04-21T07:18:26;99227.53;;;29.24;11.84
66385;BME280;53426;55.872;37.462;2023-04-21T07:20:53;99234.69;;;29.84;11.29
66385;BME280;53426;55.872;37.462;2023-04-21T07:23:21;99236.88;;;29.87;10.99
66385;BME280;53426;55.872;37.462;2023-04-21T07:25:48;99227.53;;;29.78;11.36
66385;BME280;53426;55.872;37.462;2023-04-21T07:28:35;99217.78;;;29.87;10.84
66385;BME280;53426;55.872;37.462;2023-04-21T07:31:01;99230.09;;;27.88;11.62
66385;BME280;53426;55.872;37.462;2023-04-21T07:39:08;99201.97;;;30.93;10.96
66385;BME280;53426;55.872;37.462;2023-04-21T07:41:34;99165.97;;;30.44;10.62
66385;BME280;53426;55.872;37.462;2023-04-21T07:44:03;99171.13;;;30.35;10.95
66385;BME280;53426;55.872;37.462;2023-04-21T07:46:29;99219.94;;;29.26;10.90
66385;BME280;53426;55.872;37.462;2023-04-21T07:48:58;99218.81;;;27.63;12.06
66385;BME280;53426;55.872;37.462;2023-04-21T07:51:25;99209.44;;;28.26;11.90
66385;BME280;53426;55.872;37.462;2023-04-21T07:53:52;99221.44;;;27.13;12.39
66385;BME280;53426;55.872;37.462;2023-04-21T07:56:18;99187.16;;;27.57;12.21
66385;BME280;53426;55.872;37.462;2023-04-21T07:58:50;99198.00;;;29.38;11.81
66385;BME280;53426;55.872;37.462;2023-04-21T08:01:22;99206.78;;;30.66;10.59
66385;BME280;53426;55.872;37.462;2023-04-21T08:03:50;99174.72;;;31.13;10.79
66385;BME280;53426;55.872;37.462;2023-04-21T08:06:16;99217.41;;;30.05;10.69
66385;BME280;53426;55.872;37.462;2023-04-21T08:08:45;99165.09;;;28.47;11.32
66385;BME280;53426;55.872;37.462;2023-04-21T08:11:48;99184.19;;;29.49;11.59
66385;BME280;53426;55.872;37.462;2023-04-21T08:14:14;99106.06;;;28.53;11.31
66385;BME280;53426;55.872;37.462;2023-04-21T08:16:40;99075.53;;;29.41;11.13
66385;BME280;53426;55.872;37.462;2023-04-21T08:23:04;99173.13;;;31.63;9.86
66385;BME280;53426;55.872;37.462;2023-04-21T08:25:30;99128.84;;;32.35;9.70
66385;BME280;53426;55.872;37.462;2023-04-21T08:27:57;99171.72;;;31.76;10.19
66385;BME280;53426;55.872;37.462;2023-04-21T08:30:25;99179.75;;;30.17;10.39
66385;BME280;53426;55.872;37.462;2023-04-21T08:32:54;99173.28;;;29.86;11.00
66385;BME280;53426;55.872;37.462;2023-04-21T08:35:20;99114.06;;;28.64;11.61
66385;BME280;53426;55.872;37.462;2023-04-21T08:38:14;99165.16;;;29.60;11.17
66385;BME280;53426;55.872;37.462;2023-04-21T08:40:40;99169.13;;;28.23;11.80
66385;BME280;53426;55.872;37.462;2023-04-21T08:43:07;99112.88;;;27.73;12.01
66385;BME280;53426;55.872;37.462;2023-04-21T08:48:49;99164.56;;;30.37;11.12
66385;BME280;53426;55.872;37.462;2023-04-21T08:51:26;99138.56;;;31.92;10.53
66385;BME280;53426;55.872;37.462;2023-04-21T08:53:58;99132.31;;;31.46;11.01
66385;BME280;53426;55.872;37.462;2023-04-21T08:56:29;99130.34;;;32.13;10.14
66385;BME280;53426;55.872;37.462;2023-04-21T08:59:02;99073.63;;;32.62;9.91
66385;BME280;53426;55.872;37.462;2023-04-21T09:01:31;99030.94;;;32.02;10.21
66385;BME280;53426;55.872;37.462;2023-04-21T09:11:33;99095.75;;;29.87;12.23
66385;BME280;53426;55.872;37.462;2023-04-21T09:14:02;99114.19;;;30.07;12.61
66385;BME280;53426;55.872;37.462;2023-04-21T09:16:31;99106.88;;;31.21;12.30
66385;BME280;53426;55.872;37.462;2023-04-21T09:19:00;99116.41;;;30.98;12.14
66385;BME280;53426;55.872;37.462;2023-04-21T09:25:24;99054.59;;;31.37;10.86
66385;BME280;53426;55.872;37.462;2023-04-21T09:27:52;99043.81;;;32.02;10.67
66385;BME280;53426;55.872;37.462;2023-04-21T09:30:19;99068.78;;;31.80;11.26
66385;BME280;53426;55.872;37.462;2023-04-21T09:32:45;99019.34;;;31.10;11.72
66385;BME280;53426;55.872;37.462;2023-04-21T09:35:11;99028.34;;;31.21;11.17
66385;BME280;53426;55.872;37.462;2023-04-21T09:37:42;99103.13;;;29.87;11.98
66385;BME280;53426;55.872;37.462;2023-04-21T09:40:17;99094.81;;;28.98;12.74
66385;BME280;53426;55.872;37.462;2023-04-21T09:42:45;99085.91;;;29.39;12.31
66385;BME280;53426;55.872;37.462;2023-04-21T09:45:14;99084.94;;;29.56;12.74
66385;BME280;53426;55.872;37.462;2023-04-21T09:47:44;99083.53;;;29.95;12.97
66385;BME280;53426;55.872;37.462;2023-04-21T09:50:13;99079.84;;;28.47;13.13
66385;BME280;53426;55.872;37.462;2023-04-21T09:52:42;99057.00;;;26.82;14.23
66385;BME280;53426;55.872;37.462;2023-04-21T09:55:11;99029.44;;;25.77;15.25
66385;BME280;53426;55.872;37.462;2023-04-21T09:57:38;99080.28;;;24.93;15.94
66385;BME280;53426;55.872;37.462;2023-04-21T10:00:07;99074.22;;;25.91;15.34
66385;BME280;53426;55.872;37.462;2023-04-21T10:02:39;99079.56;;;25.63;15.45
66385;BME280;53426;55.872;37.462;2023-04-21T10:05:21;99067.56;;;26.95;14.79
66385;BME280;53426;55.872;37.462;2023-04-21T10:07:48;99062.28;;;28.38;13.57
66385;BME280;53426;55.872;37.462;2023-04-21T10:10:23;99060.56;;;29.44;13.24
66385;BME280;53426;55.872;37.462;2023-04-21T10:12:51;99064.06;;;28.76;13.34
66385;BME280;53426;55.872;37.462;2023-04-21T10:15:42;99061.66;;;26.98;14.84
66385;BME280;53426;55.872;37.462;2023-04-21T10:20:51;99043.47;;;26.54;15.03
66385;BME280;53426;55.872;37.462;2023-04-21T10:23:25;99056.44;;;25.49;16.01
66385;BME280;53426;55.872;37.462;2023-04-21T10:26:04;99050.97;;;25.95;15.86
66385;BME280;53426;55.872;37.462;2023-04-21T10:28:59;99050.09;;;26.18;15.68
66385;BME280;53426;55.872;37.462;2023-04-21T10:39:27;99029.94;;;24.63;15.84
66385;BME280;53426;55.872;37.462;2023-04-21T10:41:55;99045.09;;;25.05;15.01
66385;BME280;53426;55.872;37.462;2023-04-21T10:44:24;99048.19;;;25.20;15.33
66385;BME280;53426;55.872;37.462;2023-04-21T10:46:51;99022.88;;;25.15;15.39
66385;BME280;53426;55.872;37.462;2023-04-21T10:54:28;99032.69;;;26.87;14.64
66385;BME280;53426;55.872;37.462;2023-04-21T10:56:56;99020.16;;;27.20;14.45
66385;BME280;53426;55.872;37.462;2023-04-21T10:59:22;99022.53;;;26.38;14.91
66385;BME280;53426;55.872;37.462;2023-04-21T11:01:49;99015.63;;;26.47;15.11
66385;BME280;53426;55.872;37.462;2023-04-21T11:04:16;99000.63;;;26.28;15.05
66385;BME280;53426;55.872;37.462;2023-04-21T11:06:43;99025.72;;;26.06;15.08
66385;BME280;53426;55.872;37.462;2023-04-21T11:09:09;99017.19;;;25.39;15.76
66385;BME280;53426;55.872;37.462;2023-04-21T11:11:36;99014.78;;;24.73;16.40
66385;BME280;53426;55.872;37.462;2023-04-21T11:14:02;99010.97;;;23.30;17.37
66385;BME280;53426;55.872;37.462;2023-04-21T11:16:28;99010.47;;;21.96;18.57
66385;BME280;53426;55.872;37.462;2023-04-21T11:18:55;99024.75;;;20.86;19.60
66385;BME280;53426;55.872;37.462;2023-04-21T11:21:22;99015.41;;;20.42;20.19
66385;BME280;53426;55.872;37.462;2023-04-21T11:23:51;99019.47;;;20.25;20.51
66385;BME280;53426;55.872;37.462;2023-04-21T11:26:23;99021.19;;;19.79;21.11
66385;BME280;53426;55.872;37.462;2023-04-21T11:28:53;99017.00;;;19.63;21.08
66385;BME280;53426;55.872;37.462;2023-04-21T11:31:19;99003.75;;;19.61;20.66
66385;BME280;53426;55.872;37.462;2023-04-21T11:33:46;98977.56;;;19.63;22.84
66385;BME280;53426;55.872;37.462;2023-04-21T11:36:15;99004.34;;;20.04;20.95
66385;BME280;53426;55.872;37.462;2023-04-21T11:38:43;98991.44;;;19.80;21.59
66385;BME280;53426;55.872;37.462;2023-04-21T11:41:10;98994.28;;;19.66;21.16
66385;BME280;53426;55.872;37.462;2023-04-21T11:43:36;98994.53;;;19.43;22.74
66385;BME280;53426;55.872;37.462;2023-04-21T11:46:27;98993.66;;;19.29;21.45
66385;BME280;53426;55.872;37.462;2023-04-21T11:55:46;98959.47;;;18.12;22.04
66385;BME280;53426;55.872;37.462;2023-04-21T11:58:12;98864.19;;;17.45;22.34
66385;BME280;53426;55.872;37.462;2023-04-21T12:00:44;98974.25;;;18.29;22.10
66385;BME280;53426;55.872;37.462;2023-04-21T12:03:12;98949.88;;;18.24;21.85
66385;BME280;53426;55.872;37.462;2023-04-21T12:05:38;98920.22;;;18.25;22.45
66385;BME280;53426;55.872;37.462;2023-04-21T12:08:13;98920.22;;;18.25;22.50
66385;BME280;53426;55.872;37.462;2023-04-21T12:10:43;98960.41;;;18.47;22.69
66385;BME280;53426;55.872;37.462;2023-04-21T12:13:22;98939.66;;;18.34;22.57
66385;BME280;53426;55.872;37.462;2023-04-21T12:15:49;98935.28;;;18.26;22.59
66385;BME280;53426;55.872;37.462;2023-04-21T12:18:14;98945.03;;;18.34;22.62
66385;BME280;53426;55.872;37.462;2023-04-21T12:27:30;98942.53;;;18.11;22.48
66385;BME280;53426;55.872;37.462;2023-04-21T12:38:54;98950.19;;;17.42;23.88
66385;BME280;53426;55.872;37.462;2023-04-21T12:41:45;98951.38;;;17.54;23.24
66385;BME280;53426;55.872;37.462;2023-04-21T12:44:14;98955.19;;;17.60;23.88
66385;BME280;53426;55.872;37.462;2023-04-21T12:46:40;98923.91;;;17.31;23.26
66385;BME280;53426;55.872;37.462;2023-04-21T12:49:07;98911.47;;;17.24;23.14
66385;BME280;53426;55.872;37.462;2023-04-21T12:51:35;98882.53;;;17.12;23.88
66385;BME280;53426;55.872;37.462;2023-04-21T12:54:01;98919.00;;;17.49;24.01
66385;BME280;53426;55.872;37.462;2023-04-21T12:56:27;98930.22;;;17.74;23.70
66385;BME280;53426;55.872;37.462;2023-04-21T12:59:18;98927.78;;;17.94;23.34
66385;BME280;53426;55.872;37.462;2023-04-21T13:01:44;98869.34;;;17.62;24.33
66385;BME280;53426;55.872;37.462;2023-04-21T13:04:10;98909.97;;;17.86;23.25
66385;BME280;53426;55.872;37.462;2023-04-21T13:09:56;98928.47;;;18.03;23.40
66385;BME280;53426;55.872;37.462;2023-04-21T13:12:51;98919.84;;;17.86;23.33
66385;BME280;53426;55.872;37.462;2023-04-21T13:15:18;98915.94;;;17.67;23.70
66385;BME280;53426;55.872;37.462;2023-04-21T13:17:44;98860.22;;;17.05;23.90
66385;BME280;53426;55.872;37.462;2023-04-21T13:20:10;98857.44;;;16.69;24.06
66385;BME280;53426;55.872;37.462;2023-04-21T13:22:45;98878.94;;;16.76;24.27
66385;BME280;53426;55.872;37.462;2023-04-21T13:25:46;98893.97;;;16.77;24.17
66385;BME280;53426;55.872;37.462;2023-04-21T13:28:11;98876.22;;;16.47;24.03
66385;BME280;53426;55.872;37.462;2023-04-21T13:30:41;98928.16;;;16.67;23.96
66385;BME280;53426;55.872;37.462;2023-04-21T13:33:07;98910.19;;;16.76;24.04
66385;BME280;53426;55.872;37.462;2023-04-21T13:35:33;98911.13;;;16.83;24.11
66385;BME280;53426;55.872;37.462;2023-04-21T13:37:59;98818.13;;;16.11;24.12
66385;BME280;53426;55.872;37.462;2023-04-21T13:40:25;98893.69;;;16.35;24.33
66385;BME280;53426;55.872;37.462;2023-04-21T13:42:51;98869.03;;;16.10;24.91
66385;BME280;53426;55.872;37.462;2023-04-21T13:45:17;98908.88;;;16.19;24.94
66385;BME280;53426;55.872;37.462;2023-04-21T13:47:43;98895.34;;;15.98;25.37
66385;BME280;53426;55.872;37.462;2023-04-21T13:50:09;98837.13;;;15.48;25.46
66385;BME280;53426;55.872;37.462;2023-04-21T13:52:36;98893.44;;;15.84;25.48
66385;BME280;53426;55.872;37.462;2023-04-21T13:55:02;98879.44;;;15.59;25.66
66385;BME280;53426;55.872;37.462;2023-04-21T13:57:41;98901.84;;;15.73;25.72
66385;BME280;53426;55.872;37.462;2023-04-21T14:00:08;98868.00;;;15.42;25.87
66385;BME280;53426;55.872;37.462;2023-04-21T14:02:35;98809.84;;;15.07;25.67
66385;BME280;53426;55.872;37.462;2023-04-21T14:05:09;98843.66;;;15.15;25.79
66385;BME280;53426;55.872;37.462;2023-04-21T14:07:39;98827.97;;;15.12;25.47
66385;BME280;53426;55.872;37.462;2023-04-21T14:10:06;98817.69;;;15.08;25.46
66385;BME280;53426;55.872;37.462;2023-04-21T14:12:32;98891.53;;;15.70;25.48
66385;BME280;53426;55.872;37.462;2023-04-21T14:14:57;98758.84;;;15.10;25.58
66385;BME280;53426;55.872;37.462;2023-04-21T14:17:23;98861.28;;;15.77;25.01